KMNN/MNN METAR and TAF weather

Enter ICAO airport designator
Station Type Date Time Source
KMNN METAR 2020/03/29 11:53 UTC NOAA

KMNN 291153Z AUTO 21013KT 10SM FEW055 17/14 A2963 RMK AO2 SLP033 60001 70093 T01720144 10178 20156 53005 $


Station Type Date Time Source
KMNN Decoded METAR 2020/03/29 11:53 UTC NOAA

MARION MUNICIPAL AIRPORT, OH, United States (KMNN) 40-37N 83-04W 301M
Mar 29, 2020 - 07:53 AM EDT / 2020.03.29 1153 UTC
Wind: from the SSW (210 degrees) at 15 MPH (13 KT):0
Visibility: 10 mile(s):0
Sky conditions: mostly clear
Temperature: 63.0 F (17.2 C)
Dew Point: 57.9 F (14.4 C)
Relative Humidity: 83%
Pressure (altimeter): 29.63 in. Hg (1003 hPa)
Pressure tendency: 0.01 inches (0.5 hPa) higher than three hours ago
ob: KMNN 291153Z AUTO 21013KT 10SM FEW055 17/14 A2963 RMK AO2 SLP033 60001 70093 T01720144 10178 20156 53005
cycle: 12

Station Type Date Time Source
KMNN TAF UTC NOAA

Error!

Example: see airport list